Time,TemperatureF,DewpointF,PressureIn,WindDirection,WindDirectionDegrees,WindSpeedMPH,WindSpeedGustMPH,Humidity,HourlyPrecipIn,Conditions,Clouds,dailyrainin,SoftwareType,DateUTC
2013-04-18 00:01:00,51.1,42.0,30.23,NNW,336,0.0,0.0,71,0.00,,CLR,0.00,VWS V12.08,2013-04-18 04:01:00,
2013-04-18 00:11:00,50.7,42.4,30.23,NNW,336,0.0,0.0,73,0.00,,CLR,0.00,VWS V12.08,2013-04-18 04:11:00,
2013-04-18 00:31:00,49.8,42.2,30.23,NNW,336,0.0,0.0,75,0.00,,CLR,0.00,VWS V12.08,2013-04-18 04:31:00,
2013-04-18 00:41:00,49.5,42.3,30.23,NNW,336,0.0,0.0,76,0.00,,CLR,0.00,VWS V12.08,2013-04-18 04:41:00,
2013-04-18 00:51:00,49.2,42.0,30.23,NNW,336,0.0,0.0,76,0.00,,CLR,0.00,VWS V12.08,2013-04-18 04:51:00,
2013-04-18 01:01:00,48.8,41.9,30.23,NNW,336,0.0,0.0,77,0.00,,CLR,0.00,VWS V12.08,2013-04-18 05:01:00,
2013-04-18 01:11:00,48.6,42.4,30.23,NNW,336,0.0,0.0,79,0.00,,CLR,0.00,VWS V12.08,2013-04-18 05:11:00,
2013-04-18 01:21:00,48.5,42.0,30.23,NNW,336,0.0,0.0,78,0.00,,CLR,0.00,VWS V12.08,2013-04-18 05:21:00,
2013-04-18 01:41:00,48.5,42.0,30.23,NNW,336,0.0,0.0,78,0.00,,CLR,0.00,VWS V12.08,2013-04-18 05:41:00,
2013-04-18 01:51:00,48.2,42.0,30.23,NNW,336,0.0,0.0,79,0.00,,CLR,0.00,VWS V12.08,2013-04-18 05:51:00,
2013-04-18 02:01:00,47.6,42.1,30.23,NNW,336,0.0,0.0,81,0.00,,FEW075,0.00,VWS V12.08,2013-04-18 06:01:00,
2013-04-18 02:11:00,47.0,41.8,30.23,NNW,336,0.0,0.0,82,0.00,,FEW075,0.00,VWS V12.08,2013-04-18 06:11:00,
2013-04-18 02:21:00,46.7,41.5,30.22,NNW,336,0.0,0.0,82,0.00,,FEW075,0.00,VWS V12.08,2013-04-18 06:21:00,
2013-04-18 02:51:00,46.5,42.2,30.23,NNW,336,0.0,0.0,85,0.00,,FEW075,0.00,VWS V12.08,2013-04-18 06:51:00,
2013-04-18 03:01:00,46.4,42.1,30.22,NNW,336,0.0,0.0,85,0.00,,OVC085,0.00,VWS V12.08,2013-04-18 07:01:00,
2013-04-18 03:11:00,46.4,41.8,30.22,NNW,336,0.0,0.0,84,0.00,,OVC085,0.00,VWS V12.08,2013-04-18 07:11:00,
2013-04-18 03:31:00,47.0,41.8,30.23,NNW,336,0.0,0.0,82,0.00,,OVC085,0.00,VWS V12.08,2013-04-18 07:31:00,
2013-04-18 03:41:00,46.8,41.6,30.23,NNW,336,0.0,0.0,82,0.00,,OVC085,0.00,VWS V12.08,2013-04-18 07:41:00,
2013-04-18 04:01:00,46.5,42.5,30.23,NNW,336,0.0,0.0,86,0.00,,OVC095,0.00,VWS V12.08,2013-04-18 08:01:00,
2013-04-18 04:11:00,46.4,42.5,30.23,NNW,336,0.0,0.0,86,0.00,,OVC095,0.00,VWS V12.08,2013-04-18 08:11:00,
2013-04-18 04:21:00,46.2,41.6,30.23,NNW,336,0.0,0.0,84,0.00,,OVC095,0.00,VWS V12.08,2013-04-18 08:21:00,
2013-04-18 04:31:00,46.1,41.5,30.23,NNW,336,0.0,0.0,84,0.00,,OVC095,0.00,VWS V12.08,2013-04-18 08:31:00,
2013-04-18 04:51:00,45.4,41.5,30.23,NNW,336,0.0,0.0,86,0.00,,OVC095,0.00,VWS V12.08,2013-04-18 08:51:00,
2013-04-18 05:01:00,44.9,41.0,30.23,NNW,336,0.0,0.0,86,0.00,,OVC070,0.00,VWS V12.08,2013-04-18 09:01:00,
2013-04-18 05:21:00,44.3,40.7,30.23,NNW,336,0.0,0.0,87,0.00,,OVC070,0.00,VWS V12.08,2013-04-18 09:21:00,
2013-04-18 05:31:00,44.2,40.9,30.22,NNW,336,0.0,0.0,88,0.00,,OVC070,0.00,VWS V12.08,2013-04-18 09:31:00,
2013-04-18 05:41:00,43.9,40.6,30.22,NNW,336,0.0,0.0,88,0.00,,OVC070,0.00,VWS V12.08,2013-04-18 09:41:00,
2013-04-18 06:01:00,43.6,40.6,30.23,NNW,336,0.0,0.0,89,0.00,,CLR,0.00,VWS V12.08,2013-04-18 10:01:00,
2013-04-18 06:11:00,43.6,40.6,30.23,NNW,336,0.0,0.0,89,0.00,,CLR,0.00,VWS V12.08,2013-04-18 10:11:00,
2013-04-18 06:31:00,44.3,41.6,30.24,NNW,336,0.0,0.0,90,0.00,,CLR,0.00,VWS V12.08,2013-04-18 10:31:00,
2013-04-18 06:51:00,45.7,41.5,30.24,NNW,336,0.0,0.0,85,0.00,,CLR,0.00,VWS V12.08,2013-04-18 10:51:00,
2013-04-18 07:01:00,46.4,41.2,30.24,NNW,336,0.0,0.0,82,0.00,,OVC043,0.00,VWS V12.08,2013-04-18 11:01:00,
2013-04-18 07:11:00,46.8,41.6,30.24,NNW,336,0.0,0.0,82,0.00,,OVC043,0.00,VWS V12.08,2013-04-18 11:11:00,
2013-04-18 07:31:00,48.2,43.0,30.25,NNW,336,0.0,0.0,82,0.00,,OVC043,0.00,VWS V12.08,2013-04-18 11:31:00,
2013-04-18 07:41:00,48.8,43.6,30.25,NNW,336,0.0,0.0,82,0.00,,OVC043,0.00,VWS V12.08,2013-04-18 11:41:00,
2013-04-18 07:51:00,49.5,44.2,30.25,NNW,336,0.0,0.0,82,0.00,,OVC043,0.00,VWS V12.08,2013-04-18 11:51:00,
2013-04-18 08:01:00,50.1,44.8,30.25,NNW,336,0.0,0.0,82,0.00,,OVC043,0.00,VWS V12.08,2013-04-18 12:01:00,
2013-04-18 08:11:00,50.8,45.8,30.25,ENE,64,0.0,2.0,83,0.00,,OVC043,0.00,VWS V12.08,2013-04-18 12:11:00,
2013-04-18 08:31:00,52.6,47.3,30.25,East,90,1.0,5.0,82,0.00,,OVC041,0.00,VWS V12.08,2013-04-18 12:31:00,
2013-04-18 08:41:00,52.9,47.6,30.25,ESE,115,1.0,5.0,82,0.00,,OVC041,0.00,VWS V12.08,2013-04-18 12:41:00,
2013-04-18 08:51:00,53.2,46.9,30.27,ESE,119,0.0,5.0,79,0.00,,OVC041,0.00,VWS V12.08,2013-04-18 12:51:00,
2013-04-18 09:21:00,54.1,47.4,30.26,ESE,123,5.0,7.0,78,0.00,,OVC041,0.00,VWS V12.08,2013-04-18 13:21:00,
2013-04-18 09:51:00,55.6,47.5,30.25,ENE,60,4.0,9.0,74,0.00,,OVC011,0.00,VWS V12.08,2013-04-18 13:51:00,
2013-04-18 10:01:00,55.9,48.1,30.26,ENE,71,2.0,9.0,75,0.00,,OVC037,0.00,VWS V12.08,2013-04-18 14:01:00,
2013-04-18 10:11:00,56.2,47.3,30.26,ESE,109,3.0,14.0,72,0.00,,OVC037,0.00,VWS V12.08,2013-04-18 14:11:00,
2013-04-18 10:21:00,56.3,46.7,30.26,South,171,1.0,14.0,70,0.00,,OVC037,0.00,VWS V12.08,2013-04-18 14:21:00,
2013-04-18 10:31:00,56.9,46.8,30.26,SE,128,2.0,8.0,69,0.00,,OVC037,0.00,VWS V12.08,2013-04-18 14:31:00,
2013-04-18 10:51:00,57.5,46.6,30.25,ESE,113,1.0,10.0,67,0.00,,OVC037,0.00,VWS V12.08,2013-04-18 14:51:00,
2013-04-18 11:11:00,57.2,46.0,30.25,South,173,0.0,12.0,66,0.00,,OVC037,0.00,VWS V12.08,2013-04-18 15:11:00,
2013-04-18 11:31:00,56.9,45.7,30.25,SE,132,5.0,14.0,66,0.00,,OVC037,0.00,VWS V12.08,2013-04-18 15:31:00,
2013-04-18 11:51:00,57.5,45.8,30.25,SSW,211,0.0,12.0,65,0.00,,OVC037,0.00,VWS V12.08,2013-04-18 15:51:00,
2013-04-18 12:31:00,57.5,46.2,30.24,South,171,5.0,11.0,66,0.00,,OVC037,0.00,VWS V12.08,2013-04-18 16:31:00,
2013-04-18 12:41:00,57.5,47.0,30.24,SE,145,4.0,12.0,68,0.00,,OVC037,0.00,VWS V12.08,2013-04-18 16:41:00,
2013-04-18 12:51:00,57.6,47.1,30.23,ENE,77,0.0,12.0,68,0.00,,OVC037,0.00,VWS V12.08,2013-04-18 16:51:00,
2013-04-18 13:01:00,58.0,47.1,30.22,SE,124,7.0,12.0,67,0.00,,OVC047,0.00,VWS V12.08,2013-04-18 17:01:00,
2013-04-18 13:11:00,58.0,47.5,30.22,SE,140,1.0,7.0,68,0.00,,OVC047,0.00,VWS V12.08,2013-04-18 17:11:00,
2013-04-18 13:21:00,58.1,47.2,30.22,SE,144,5.0,11.0,67,0.00,,OVC047,0.00,VWS V12.08,2013-04-18 17:21:00,
2013-04-18 13:31:00,58.4,47.1,30.21,SE,142,4.0,10.0,66,0.00,,OVC047,0.00,VWS V12.08,2013-04-18 17:31:00,
2013-04-18 13:41:00,58.6,48.9,30.21,SE,130,0.0,9.0,70,0.00,,OVC047,0.00,VWS V12.08,2013-04-18 17:41:00,
2013-04-18 13:51:00,58.3,50.1,30.20,ESE,119,3.0,6.0,74,0.00,,OVC047,0.00,VWS V12.08,2013-04-18 17:51:00,
2013-04-18 14:01:00,57.8,49.6,30.19,East,94,5.0,6.0,74,0.00,,OVC025,0.00,VWS V12.08,2013-04-18 18:01:00,
2013-04-18 14:11:00,58.0,50.5,30.19,ENE,66,6.0,6.0,76,0.00,,OVC025,0.00,VWS V12.08,2013-04-18 18:11:00,
2013-04-18 14:21:00,58.3,50.4,30.19,ENE,69,3.0,8.0,75,0.00,,OVC025,0.00,VWS V12.08,2013-04-18 18:21:00,
2013-04-18 14:31:00,58.3,50.4,30.19,ENE,76,4.0,6.0,75,0.00,,OVC025,0.00,VWS V12.08,2013-04-18 18:31:00,
2013-04-18 14:41:00,58.3,50.4,30.19,ESE,103,3.0,6.0,75,0.00,,OVC025,0.00,VWS V12.08,2013-04-18 18:41:00,
2013-04-18 14:51:00,58.4,51.9,30.18,ESE,110,0.0,4.0,79,0.01,,OVC025,0.01,VWS V12.08,2013-04-18 18:51:00,
2013-04-18 15:01:00,58.3,50.1,30.17,SE,130,6.0,10.0,74,0.01,,-RA,0.01,VWS V12.08,2013-04-18 19:01:00,
2013-04-18 15:11:00,58.3,50.4,30.17,SE,126,1.0,7.0,75,0.01,,-RA,0.01,VWS V12.08,2013-04-18 19:11:00,
2013-04-18 15:41:00,59.5,50.5,30.16,East,95,0.0,7.0,72,0.01,,-RA,0.01,VWS V12.08,2013-04-18 19:41:00,
2013-04-18 16:21:00,59.5,50.5,30.15,SE,141,3.0,5.0,72,0.00,,-RA,0.01,VWS V12.08,2013-04-18 20:21:00,
2013-04-18 16:31:00,59.3,50.3,30.14,ESE,121,7.0,11.0,72,0.00,,-RA,0.01,VWS V12.08,2013-04-18 20:31:00,
2013-04-18 16:41:00,59.2,50.6,30.14,ENE,76,4.0,11.0,73,0.00,,-RA,0.01,VWS V12.08,2013-04-18 20:41:00,
2013-04-18 16:51:00,59.0,50.7,30.14,SE,128,6.0,8.0,74,0.00,,-RA,0.01,VWS V12.08,2013-04-18 20:51:00,
2013-04-18 17:01:00,58.9,51.0,30.14,SE,142,1.0,13.0,75,0.00,,OVC055,0.01,VWS V12.08,2013-04-18 21:01:00,
2013-04-18 17:11:00,58.4,51.2,30.14,SE,126,7.0,13.0,77,0.00,,OVC055,0.01,VWS V12.08,2013-04-18 21:11:00,
2013-04-18 17:21:00,58.0,51.2,30.14,ENE,76,1.0,11.0,78,0.00,,OVC055,0.01,VWS V12.08,2013-04-18 21:21:00,
2013-04-18 17:31:00,57.6,51.5,30.13,NE,49,0.0,10.0,80,0.00,,OVC055,0.01,VWS V12.08,2013-04-18 21:31:00,
2013-04-18 17:41:00,57.5,52.1,30.13,SSE,167,3.0,7.0,82,0.00,,OVC055,0.01,VWS V12.08,2013-04-18 21:41:00,
2013-04-18 17:51:00,57.3,51.9,30.13,East,84,1.0,6.0,82,0.00,,OVC055,0.01,VWS V12.08,2013-04-18 21:51:00,
2013-04-18 18:01:00,57.3,51.9,30.13,ENE,57,4.0,5.0,82,0.00,,OVC013,0.01,VWS V12.08,2013-04-18 22:01:00,
2013-04-18 18:11:00,57.0,51.9,30.13,ENE,57,4.0,4.0,83,0.00,,OVC013,0.01,VWS V12.08,2013-04-18 22:11:00,
2013-04-18 18:21:00,56.7,51.9,30.12,ENE,57,4.0,4.0,84,0.00,,OVC013,0.01,VWS V12.08,2013-04-18 22:21:00,
2013-04-18 18:31:00,56.7,52.2,30.12,ENE,57,4.0,4.0,85,0.00,,OVC013,0.01,VWS V12.08,2013-04-18 22:31:00,
2013-04-18 18:41:00,56.6,52.2,30.12,ENE,57,4.0,4.0,85,0.00,,OVC013,0.01,VWS V12.08,2013-04-18 22:41:00,
2013-04-18 18:51:00,56.6,52.5,30.11,ENE,57,4.0,4.0,86,0.00,,OVC013,0.01,VWS V12.08,2013-04-18 22:51:00,
2013-04-18 19:01:00,56.5,52.4,30.11,ENE,57,4.0,4.0,86,0.00,,OVC011,0.01,VWS V12.08,2013-04-18 23:01:00,
2013-04-18 19:11:00,56.5,52.4,30.11,ENE,57,4.0,4.0,86,0.00,,OVC011,0.01,VWS V12.08,2013-04-18 23:11:00,
2013-04-18 19:21:00,56.3,52.2,30.11,ENE,57,4.0,4.0,86,0.00,,OVC011,0.01,VWS V12.08,2013-04-18 23:21:00,
2013-04-18 19:31:00,56.3,52.5,30.10,ENE,57,4.0,4.0,87,0.00,,OVC011,0.01,VWS V12.08,2013-04-18 23:31:00,
2013-04-18 19:41:00,56.2,52.1,30.10,ENE,57,4.0,4.0,86,0.00,,OVC011,0.01,VWS V12.08,2013-04-18 23:41:00,
2013-04-18 19:51:00,55.9,52.1,30.10,ENE,57,4.0,4.0,87,0.00,,OVC011,0.01,VWS V12.08,2013-04-18 23:51:00,
2013-04-18 20:01:00,55.7,51.9,30.10,ENE,57,4.0,4.0,87,0.00,,OVC011,0.01,VWS V12.08,2013-04-19 00:01:00,
2013-04-18 20:11:00,55.6,51.8,30.10,ENE,57,4.0,4.0,87,0.00,,OVC011,0.01,VWS V12.08,2013-04-19 00:11:00,
2013-04-18 20:21:00,55.3,51.5,30.10,ENE,57,4.0,4.0,87,0.00,,OVC011,0.01,VWS V12.08,2013-04-19 00:21:00,
2013-04-18 20:31:00,55.0,50.9,30.10,ENE,57,4.0,4.0,86,0.00,,OVC011,0.01,VWS V12.08,2013-04-19 00:31:00,
2013-04-18 20:41:00,54.5,50.7,30.10,ENE,57,4.0,4.0,87,0.00,,OVC011,0.01,VWS V12.08,2013-04-19 00:41:00,
2013-04-18 20:51:00,54.2,50.7,30.09,ENE,57,4.0,4.0,88,0.00,,OVC011,0.01,VWS V12.08,2013-04-19 00:51:00,
2013-04-18 21:01:00,53.9,50.4,30.08,ENE,57,4.0,4.0,88,0.00,,OVC009,0.01,VWS V12.08,2013-04-19 01:01:00,
2013-04-18 21:11:00,53.8,50.6,30.08,ENE,57,4.0,4.0,89,0.00,,OVC009,0.01,VWS V12.08,2013-04-19 01:11:00,
2013-04-18 21:21:00,53.5,50.0,30.08,ENE,57,4.0,4.0,88,0.00,,OVC009,0.01,VWS V12.08,2013-04-19 01:21:00,
2013-04-18 21:31:00,53.3,49.8,30.08,ENE,57,4.0,4.0,88,0.00,,OVC009,0.01,VWS V12.08,2013-04-19 01:31:00,
2013-04-18 21:41:00,53.2,50.0,30.08,ENE,57,4.0,4.0,89,0.00,,OVC009,0.01,VWS V12.08,2013-04-19 01:41:00,
2013-04-18 21:51:00,53.1,50.0,30.08,ENE,57,4.0,4.0,89,0.00,,OVC009,0.01,VWS V12.08,2013-04-19 01:51:00,
2013-04-18 22:01:00,53.1,50.0,30.07,ENE,57,4.0,4.0,89,0.00,,OVC015,0.01,VWS V12.08,2013-04-19 02:01:00,
2013-04-18 22:11:00,53.1,50.0,30.07,ENE,57,4.0,4.0,89,0.00,,OVC015,0.01,VWS V12.08,2013-04-19 02:11:00,
2013-04-18 22:21:00,53.1,50.2,30.06,ENE,57,4.0,4.0,90,0.00,,OVC015,0.01,VWS V12.08,2013-04-19 02:21:00,
2013-04-18 22:31:00,53.1,50.2,30.06,ENE,57,4.0,4.0,90,0.00,,OVC015,0.01,VWS V12.08,2013-04-19 02:31:00,
2013-04-18 22:41:00,53.1,50.2,30.06,ENE,57,4.0,4.0,90,0.00,,OVC015,0.01,VWS V12.08,2013-04-19 02:41:00,
2013-04-18 22:51:00,53.1,50.5,30.05,ENE,57,4.0,4.0,91,0.00,,OVC015,0.01,VWS V12.08,2013-04-19 02:51:00,
2013-04-18 23:01:00,53.1,50.5,30.04,ENE,57,4.0,4.0,91,0.00,,OVC008,0.01,VWS V12.08,2013-04-19 03:01:00,
2013-04-18 23:11:00,53.1,50.5,30.04,ENE,57,4.0,4.0,91,0.00,,OVC008,0.01,VWS V12.08,2013-04-19 03:11:00,
2013-04-18 23:21:00,53.1,50.5,30.03,ENE,57,4.0,4.0,91,0.00,,OVC008,0.01,VWS V12.08,2013-04-19 03:21:00,
2013-04-18 23:31:00,53.2,50.9,30.03,ENE,57,4.0,4.0,92,0.00,,OVC008,0.01,VWS V12.08,2013-04-19 03:31:00,
2013-04-18 23:41:00,53.2,50.9,30.03,ENE,57,4.0,4.0,92,0.00,,OVC008,0.01,VWS V12.08,2013-04-19 03:41:00,
2013-04-18 23:51:00,53.3,51.0,30.03,ENE,57,4.0,4.0,92,0.00,,OVC008,0.01,VWS V12.08,2013-04-19 03:51:00,